sensor_id;sensor_type;location;lat;lon;timestamp;temperature;humidity
17146;DHT22;8688;54.444;18.444;2023-06-05T00:01:06;6.60;1.00
17146;DHT22;8688;54.444;18.444;2023-06-05T00:03:36;6.60;1.00
17146;DHT22;8688;54.444;18.444;2023-06-05T00:06:05;6.50;1.00
17146;DHT22;8688;54.444;18.444;2023-06-05T00:08:33;6.40;1.00
17146;DHT22;8688;54.444;18.444;2023-06-05T00:11:00;6.40;1.00
17146;DHT22;8688;54.444;18.444;2023-06-05T00:13:28;6.50;99.90
17146;DHT22;8688;54.444;18.444;2023-06-05T00:15:55;6.50;1.00
17146;DHT22;8688;54.444;18.444;2023-06-05T00:18:23;6.50;99.90
17146;DHT22;8688;54.444;18.444;2023-06-05T00:20:52;6.60;1.00
17146;DHT22;8688;54.444;18.444;2023-06-05T00:23:19;6.60;1.00
17146;DHT22;8688;54.444;18.444;2023-06-05T00:25:47;6.70;99.90
17146;DHT22;8688;54.444;18.444;2023-06-05T00:28:14;6.70;99.90
17146;DHT22;8688;54.444;18.444;2023-06-05T00:30:42;6.60;1.00
17146;DHT22;8688;54.444;18.444;2023-06-05T00:33:09;6.50;1.00
17146;DHT22;8688;54.444;18.444;2023-06-05T00:35:38;6.50;1.00
17146;DHT22;8688;54.444;18.444;2023-06-05T00:38:07;6.40;1.00
17146;DHT22;8688;54.444;18.444;2023-06-05T00:40:34;6.30;99.90
17146;DHT22;8688;54.444;18.444;2023-06-05T00:43:02;6.30;99.90
17146;DHT22;8688;54.444;18.444;2023-06-05T00:45:31;6.30;99.90
17146;DHT22;8688;54.444;18.444;2023-06-05T00:47:59;6.30;1.00
17146;DHT22;8688;54.444;18.444;2023-06-05T00:50:26;6.30;1.00
17146;DHT22;8688;54.444;18.444;2023-06-05T00:52:57;6.30;1.00
17146;DHT22;8688;54.444;18.444;2023-06-05T00:55:26;6.30;1.00
17146;DHT22;8688;54.444;18.444;2023-06-05T00:57:55;6.30;1.00
17146;DHT22;8688;54.444;18.444;2023-06-05T01:00:25;6.30;99.90
17146;DHT22;8688;54.444;18.444;2023-06-05T01:02:54;6.30;1.00
17146;DHT22;8688;54.444;18.444;2023-06-05T01:05:24;6.20;1.00
17146;DHT22;8688;54.444;18.444;2023-06-05T01:07:52;6.20;1.00
17146;DHT22;8688;54.444;18.444;2023-06-05T01:10:20;6.20;1.00
17146;DHT22;8688;54.444;18.444;2023-06-05T01:12:55;6.20;1.00
17146;DHT22;8688;54.444;18.444;2023-06-05T01:15:27;6.10;1.00
17146;DHT22;8688;54.444;18.444;2023-06-05T01:17:56;6.10;1.00
17146;DHT22;8688;54.444;18.444;2023-06-05T01:20:32;6.00;1.00
17146;DHT22;8688;54.444;18.444;2023-06-05T01:23:01;5.90;1.00
17146;DHT22;8688;54.444;18.444;2023-06-05T01:25:29;5.90;1.00
17146;DHT22;8688;54.444;18.444;2023-06-05T01:28:00;5.90;1.00
17146;DHT22;8688;54.444;18.444;2023-06-05T01:30:34;5.90;1.00
17146;DHT22;8688;54.444;18.444;2023-06-05T01:33:08;5.80;1.00
17146;DHT22;8688;54.444;18.444;2023-06-05T01:35:39;5.70;1.00
17146;DHT22;8688;54.444;18.444;2023-06-05T01:38:10;5.60;99.90
17146;DHT22;8688;54.444;18.444;2023-06-05T01:40:38;5.60;1.00
17146;DHT22;8688;54.444;18.444;2023-06-05T01:43:07;5.60;1.00
17146;DHT22;8688;54.444;18.444;2023-06-05T01:45:37;5.70;1.00
17146;DHT22;8688;54.444;18.444;2023-06-05T01:48:07;5.70;1.00
17146;DHT22;8688;54.444;18.444;2023-06-05T01:50:36;5.70;99.90
17146;DHT22;8688;54.444;18.444;2023-06-05T01:53:04;5.70;7.60
17146;DHT22;8688;54.444;18.444;2023-06-05T01:55:33;5.70;1.00
17146;DHT22;8688;54.444;18.444;2023-06-05T01:58:04;5.60;99.90
17146;DHT22;8688;54.444;18.444;2023-06-05T02:00:32;5.60;99.90
17146;DHT22;8688;54.444;18.444;2023-06-05T02:03:01;5.60;99.90
17146;DHT22;8688;54.444;18.444;2023-06-05T02:05:29;5.70;1.00
17146;DHT22;8688;54.444;18.444;2023-06-05T02:07:59;5.70;99.90
17146;DHT22;8688;54.444;18.444;2023-06-05T02:10:33;5.70;99.90
17146;DHT22;8688;54.444;18.444;2023-06-05T02:13:00;5.70;1.00
17146;DHT22;8688;54.444;18.444;2023-06-05T02:15:28;5.70;1.00
17146;DHT22;8688;54.444;18.444;2023-06-05T02:17:58;5.70;1.00
17146;DHT22;8688;54.444;18.444;2023-06-05T02:20:26;5.60;1.00
17146;DHT22;8688;54.444;18.444;2023-06-05T02:22:54;5.60;99.90
17146;DHT22;8688;54.444;18.444;2023-06-05T02:25:23;5.60;99.90
17146;DHT22;8688;54.444;18.444;2023-06-05T02:27:53;5.60;99.90
17146;DHT22;8688;54.444;18.444;2023-06-05T02:30:21;5.60;99.90
17146;DHT22;8688;54.444;18.444;2023-06-05T02:32:50;5.60;1.00
17146;DHT22;8688;54.444;18.444;2023-06-05T02:35:22;5.60;7.90
17146;DHT22;8688;54.444;18.444;2023-06-05T02:37:50;5.50;1.00
17146;DHT22;8688;54.444;18.444;2023-06-05T02:40:18;5.40;1.00
17146;DHT22;8688;54.444;18.444;2023-06-05T02:42:45;5.40;99.80
17146;DHT22;8688;54.444;18.444;2023-06-05T02:45:14;5.50;1.00
17146;DHT22;8688;54.444;18.444;2023-06-05T02:47:42;5.50;1.00
17146;DHT22;8688;54.444;18.444;2023-06-05T02:50:09;5.50;1.00
17146;DHT22;8688;54.444;18.444;2023-06-05T02:52:37;5.40;1.00
17146;DHT22;8688;54.444;18.444;2023-06-05T02:55:06;5.50;99.90
17146;DHT22;8688;54.444;18.444;2023-06-05T02:57:34;5.50;1.00
17146;DHT22;8688;54.444;18.444;2023-06-05T03:00:08;5.60;99.90
17146;DHT22;8688;54.444;18.444;2023-06-05T03:02:37;5.70;1.00
17146;DHT22;8688;54.444;18.444;2023-06-05T03:05:05;5.80;1.00
17146;DHT22;8688;54.444;18.444;2023-06-05T03:07:33;5.80;1.00
17146;DHT22;8688;54.444;18.444;2023-06-05T03:10:01;5.90;99.90
17146;DHT22;8688;54.444;18.444;2023-06-05T03:12:28;5.90;99.90
17146;DHT22;8688;54.444;18.444;2023-06-05T03:14:56;5.90;99.90
17146;DHT22;8688;54.444;18.444;2023-06-05T03:17:23;5.90;1.00
17146;DHT22;8688;54.444;18.444;2023-06-05T03:19:52;5.90;99.90
17146;DHT22;8688;54.444;18.444;2023-06-05T03:22:19;6.00;1.00
17146;DHT22;8688;54.444;18.444;2023-06-05T03:24:47;6.10;1.00
17146;DHT22;8688;54.444;18.444;2023-06-05T03:27:15;6.20;99.90
17146;DHT22;8688;54.444;18.444;2023-06-05T03:29:43;6.20;99.90
17146;DHT22;8688;54.444;18.444;2023-06-05T03:32:10;6.30;1.00
17146;DHT22;8688;54.444;18.444;2023-06-05T03:34:37;6.30;99.90
17146;DHT22;8688;54.444;18.444;2023-06-05T03:37:10;6.40;1.00
17146;DHT22;8688;54.444;18.444;2023-06-05T03:39:37;6.50;99.90
17146;DHT22;8688;54.444;18.444;2023-06-05T03:42:05;6.60;1.00
17146;DHT22;8688;54.444;18.444;2023-06-05T03:44:35;6.60;1.00
17146;DHT22;8688;54.444;18.444;2023-06-05T03:47:02;6.70;1.00
17146;DHT22;8688;54.444;18.444;2023-06-05T03:49:30;6.80;1.00
17146;DHT22;8688;54.444;18.444;2023-06-05T03:51:57;6.90;1.00
17146;DHT22;8688;54.444;18.444;2023-06-05T03:54:28;7.00;99.90
17146;DHT22;8688;54.444;18.444;2023-06-05T03:56:58;7.00;99.90
17146;DHT22;8688;54.444;18.444;2023-06-05T03:59:26;7.10;1.00
17146;DHT22;8688;54.444;18.444;2023-06-05T04:01:55;7.20;1.00
17146;DHT22;8688;54.444;18.444;2023-06-05T04:04:22;7.30;1.00
17146;DHT22;8688;54.444;18.444;2023-06-05T04:06:53;7.40;99.90
17146;DHT22;8688;54.444;18.444;2023-06-05T04:09:21;7.50;1.00
17146;DHT22;8688;54.444;18.444;2023-06-05T04:11:50;7.50;1.00
17146;DHT22;8688;54.444;18.444;2023-06-05T04:14:18;7.60;35.20
17146;DHT22;8688;54.444;18.444;2023-06-05T04:16:45;7.60;99.90
17146;DHT22;8688;54.444;18.444;2023-06-05T04:19:13;7.70;1.00
17146;DHT22;8688;54.444;18.444;2023-06-05T04:21:41;7.80;1.00
17146;DHT22;8688;54.444;18.444;2023-06-05T04:24:08;7.90;99.90
17146;DHT22;8688;54.444;18.444;2023-06-05T04:26:37;8.00;1.00
17146;DHT22;8688;54.444;18.444;2023-06-05T04:29:08;8.10;1.00
17146;DHT22;8688;54.444;18.444;2023-06-05T04:31:41;8.30;1.00
17146;DHT22;8688;54.444;18.444;2023-06-05T04:34:09;8.40;1.00
17146;DHT22;8688;54.444;18.444;2023-06-05T04:36:36;8.50;99.90
17146;DHT22;8688;54.444;18.444;2023-06-05T04:39:04;8.60;99.90
17146;DHT22;8688;54.444;18.444;2023-06-05T04:41:36;8.70;1.00
17146;DHT22;8688;54.444;18.444;2023-06-05T04:44:15;8.70;99.90
17146;DHT22;8688;54.444;18.444;2023-06-05T04:46:43;8.90;99.90
17146;DHT22;8688;54.444;18.444;2023-06-05T04:49:11;9.00;98.10
17146;DHT22;8688;54.444;18.444;2023-06-05T04:51:39;9.10;99.90
17146;DHT22;8688;54.444;18.444;2023-06-05T04:54:06;9.20;99.90
17146;DHT22;8688;54.444;18.444;2023-06-05T04:56:34;9.30;20.80
17146;DHT22;8688;54.444;18.444;2023-06-05T04:59:01;9.40;1.00
17146;DHT22;8688;54.444;18.444;2023-06-05T05:01:31;9.50;1.00
17146;DHT22;8688;54.444;18.444;2023-06-05T05:03:59;9.60;1.00
17146;DHT22;8688;54.444;18.444;2023-06-05T05:06:26;9.70;1.00
17146;DHT22;8688;54.444;18.444;2023-06-05T05:08:54;9.80;1.00
17146;DHT22;8688;54.444;18.444;2023-06-05T05:11:21;9.90;1.00
17146;DHT22;8688;54.444;18.444;2023-06-05T05:13:49;10.00;1.00
17146;DHT22;8688;54.444;18.444;2023-06-05T05:16:16;10.10;1.00
17146;DHT22;8688;54.444;18.444;2023-06-05T05:18:45;10.20;1.00
17146;DHT22;8688;54.444;18.444;2023-06-05T05:21:13;10.30;1.00
17146;DHT22;8688;54.444;18.444;2023-06-05T05:23:40;10.40;1.00
17146;DHT22;8688;54.444;18.444;2023-06-05T05:26:09;10.50;1.00
17146;DHT22;8688;54.444;18.444;2023-06-05T05:28:37;10.60;1.00
17146;DHT22;8688;54.444;18.444;2023-06-05T05:31:04;10.70;1.00
17146;DHT22;8688;54.444;18.444;2023-06-05T05:33:31;10.80;1.00
17146;DHT22;8688;54.444;18.444;2023-06-05T05:36:00;11.00;1.00
17146;DHT22;8688;54.444;18.444;2023-06-05T05:38:30;11.10;1.00
17146;DHT22;8688;54.444;18.444;2023-06-05T05:40:57;11.20;1.00
17146;DHT22;8688;54.444;18.444;2023-06-05T05:43:28;11.30;1.00
17146;DHT22;8688;54.444;18.444;2023-06-05T05:45:55;11.40;1.00
17146;DHT22;8688;54.444;18.444;2023-06-05T05:48:23;11.50;99.90
17146;DHT22;8688;54.444;18.444;2023-06-05T05:50:51;11.60;99.90
17146;DHT22;8688;54.444;18.444;2023-06-05T05:53:21;11.80;99.90
17146;DHT22;8688;54.444;18.444;2023-06-05T05:55:49;11.90;99.90
17146;DHT22;8688;54.444;18.444;2023-06-05T05:58:16;11.90;99.90
17146;DHT22;8688;54.444;18.444;2023-06-05T06:00:47;12.10;99.90
17146;DHT22;8688;54.444;18.444;2023-06-05T06:03:15;12.30;99.90
17146;DHT22;8688;54.444;18.444;2023-06-05T06:05:43;12.30;99.90
17146;DHT22;8688;54.444;18.444;2023-06-05T06:08:13;12.60;99.90
17146;DHT22;8688;54.444;18.444;2023-06-05T06:10:42;12.70;99.90
17146;DHT22;8688;54.444;18.444;2023-06-05T06:13:11;12.70;99.90
17146;DHT22;8688;54.444;18.444;2023-06-05T06:15:39;12.80;99.90
17146;DHT22;8688;54.444;18.444;2023-06-05T06:18:06;13.00;99.90
17146;DHT22;8688;54.444;18.444;2023-06-05T06:20:34;13.30;99.90
17146;DHT22;8688;54.444;18.444;2023-06-05T06:23:02;13.70;99.90
17146;DHT22;8688;54.444;18.444;2023-06-05T06:25:29;13.90;99.90
17146;DHT22;8688;54.444;18.444;2023-06-05T06:28:00;13.90;99.90
17146;DHT22;8688;54.444;18.444;2023-06-05T06:30:27;14.10;99.90
17146;DHT22;8688;54.444;18.444;2023-06-05T06:32:56;14.30;99.90
17146;DHT22;8688;54.444;18.444;2023-06-05T06:35:24;14.30;99.90
17146;DHT22;8688;54.444;18.444;2023-06-05T06:37:53;14.30;99.90
17146;DHT22;8688;54.444;18.444;2023-06-05T06:40:21;14.50;91.40
17146;DHT22;8688;54.444;18.444;2023-06-05T06:42:49;14.50;85.30
17146;DHT22;8688;54.444;18.444;2023-06-05T06:45:18;14.60;73.60
17146;DHT22;8688;54.444;18.444;2023-06-05T06:47:45;14.70;55.90
17146;DHT22;8688;54.444;18.444;2023-06-05T06:50:13;14.70;56.90
17146;DHT22;8688;54.444;18.444;2023-06-05T06:52:41;14.70;54.80
17146;DHT22;8688;54.444;18.444;2023-06-05T06:55:09;14.70;88.40
17146;DHT22;8688;54.444;18.444;2023-06-05T06:57:37;14.80;43.00
17146;DHT22;8688;54.444;18.444;2023-06-05T07:00:06;14.80;42.40
17146;DHT22;8688;54.444;18.444;2023-06-05T07:02:39;14.80;32.10
17146;DHT22;8688;54.444;18.444;2023-06-05T07:05:07;14.80;27.20
17146;DHT22;8688;54.444;18.444;2023-06-05T07:07:35;14.90;16.50
17146;DHT22;8688;54.444;18.444;2023-06-05T07:10:02;14.90;10.00
17146;DHT22;8688;54.444;18.444;2023-06-05T07:12:30;15.00;13.20
17146;DHT22;8688;54.444;18.444;2023-06-05T07:14:58;15.10;2.80
17146;DHT22;8688;54.444;18.444;2023-06-05T07:17:25;15.20;1.00
17146;DHT22;8688;54.444;18.444;2023-06-05T07:19:56;15.30;1.00
17146;DHT22;8688;54.444;18.444;2023-06-05T07:22:24;15.30;1.00
17146;DHT22;8688;54.444;18.444;2023-06-05T07:24:52;15.20;1.00
17146;DHT22;8688;54.444;18.444;2023-06-05T07:27:20;15.20;1.00
17146;DHT22;8688;54.444;18.444;2023-06-05T07:29:49;15.30;1.00
17146;DHT22;8688;54.444;18.444;2023-06-05T07:32:19;15.40;1.00
17146;DHT22;8688;54.444;18.444;2023-06-05T07:34:47;15.40;1.00
17146;DHT22;8688;54.444;18.444;2023-06-05T07:37:16;15.60;1.00
17146;DHT22;8688;54.444;18.444;2023-06-05T07:39:43;15.90;1.00
17146;DHT22;8688;54.444;18.444;2023-06-05T07:42:11;16.10;1.00
17146;DHT22;8688;54.444;18.444;2023-06-05T07:44:38;16.10;1.00
17146;DHT22;8688;54.444;18.444;2023-06-05T07:47:06;16.10;1.00
17146;DHT22;8688;54.444;18.444;2023-06-05T07:49:33;16.10;1.00
17146;DHT22;8688;54.444;18.444;2023-06-05T07:52:00;16.10;1.00
17146;DHT22;8688;54.444;18.444;2023-06-05T07:54:29;16.20;1.00
17146;DHT22;8688;54.444;18.444;2023-06-05T07:56:57;16.30;1.00
17146;DHT22;8688;54.444;18.444;2023-06-05T07:59:25;16.20;1.00
17146;DHT22;8688;54.444;18.444;2023-06-05T08:01:54;16.30;1.00
17146;DHT22;8688;54.444;18.444;2023-06-05T08:04:22;16.40;1.00
17146;DHT22;8688;54.444;18.444;2023-06-05T08:06:51;16.40;1.00
17146;DHT22;8688;54.444;18.444;2023-06-05T08:09:19;16.40;1.00
17146;DHT22;8688;54.444;18.444;2023-06-05T08:11:48;16.60;1.00
17146;DHT22;8688;54.444;18.444;2023-06-05T08:14:16;16.60;1.00
17146;DHT22;8688;54.444;18.444;2023-06-05T08:16:43;16.60;1.00
17146;DHT22;8688;54.444;18.444;2023-06-05T08:19:11;16.60;1.00
17146;DHT22;8688;54.444;18.444;2023-06-05T08:21:41;16.70;1.00
17146;DHT22;8688;54.444;18.444;2023-06-05T08:24:08;16.60;1.00
17146;DHT22;8688;54.444;18.444;2023-06-05T08:26:36;16.70;1.00
17146;DHT22;8688;54.444;18.444;2023-06-05T08:29:05;16.80;1.00
17146;DHT22;8688;54.444;18.444;2023-06-05T08:31:32;16.90;1.00
17146;DHT22;8688;54.444;18.444;2023-06-05T08:34:02;17.00;1.00
17146;DHT22;8688;54.444;18.444;2023-06-05T08:36:29;17.10;1.00
17146;DHT22;8688;54.444;18.444;2023-06-05T08:38:58;17.10;1.00
17146;DHT22;8688;54.444;18.444;2023-06-05T08:41:26;17.20;1.00
17146;DHT22;8688;54.444;18.444;2023-06-05T08:43:53;17.30;1.00
17146;DHT22;8688;54.444;18.444;2023-06-05T08:46:22;17.40;1.00
17146;DHT22;8688;54.444;18.444;2023-06-05T08:48:51;17.60;1.00
17146;DHT22;8688;54.444;18.444;2023-06-05T08:51:20;17.70;1.00
17146;DHT22;8688;54.444;18.444;2023-06-05T08:53:52;17.80;1.00
17146;DHT22;8688;54.444;18.444;2023-06-05T08:56:21;17.80;1.00
17146;DHT22;8688;54.444;18.444;2023-06-05T08:58:49;17.80;1.00
17146;DHT22;8688;54.444;18.444;2023-06-05T09:01:17;17.90;1.00
17146;DHT22;8688;54.444;18.444;2023-06-05T09:03:46;17.90;1.00
17146;DHT22;8688;54.444;18.444;2023-06-05T09:06:13;17.90;1.00
17146;DHT22;8688;54.444;18.444;2023-06-05T09:08:41;18.00;1.00
17146;DHT22;8688;54.444;18.444;2023-06-05T09:11:23;18.00;1.00
17146;DHT22;8688;54.444;18.444;2023-06-05T09:13:51;18.10;1.00
17146;DHT22;8688;54.444;18.444;2023-06-05T09:16:20;18.10;1.00
17146;DHT22;8688;54.444;18.444;2023-06-05T09:18:56;18.10;1.00
17146;DHT22;8688;54.444;18.444;2023-06-05T09:21:25;18.10;1.00
17146;DHT22;8688;54.444;18.444;2023-06-05T09:24:14;18.10;1.00
17146;DHT22;8688;54.444;18.444;2023-06-05T09:26:55;18.10;1.00
17146;DHT22;8688;54.444;18.444;2023-06-05T09:29:24;18.20;1.00
17146;DHT22;8688;54.444;18.444;2023-06-05T09:31:53;18.20;1.00
17146;DHT22;8688;54.444;18.444;2023-06-05T09:34:27;18.30;1.00
17146;DHT22;8688;54.444;18.444;2023-06-05T09:36:56;18.30;1.00
17146;DHT22;8688;54.444;18.444;2023-06-05T09:39:24;18.30;1.00
17146;DHT22;8688;54.444;18.444;2023-06-05T09:41:52;18.40;1.00
17146;DHT22;8688;54.444;18.444;2023-06-05T09:44:20;18.40;1.00
17146;DHT22;8688;54.444;18.444;2023-06-05T09:46:52;18.40;1.00
17146;DHT22;8688;54.444;18.444;2023-06-05T09:49:21;18.50;1.00
17146;DHT22;8688;54.444;18.444;2023-06-05T09:51:50;18.50;1.00
17146;DHT22;8688;54.444;18.444;2023-06-05T09:54:20;18.50;1.00
17146;DHT22;8688;54.444;18.444;2023-06-05T09:56:49;18.50;1.00
17146;DHT22;8688;54.444;18.444;2023-06-05T09:59:21;18.50;1.00
17146;DHT22;8688;54.444;18.444;2023-06-05T10:01:50;18.50;1.00
17146;DHT22;8688;54.444;18.444;2023-06-05T10:04:20;18.50;1.00
17146;DHT22;8688;54.444;18.444;2023-06-05T10:06:51;18.50;1.00
17146;DHT22;8688;54.444;18.444;2023-06-05T10:09:19;18.60;1.00
17146;DHT22;8688;54.444;18.444;2023-06-05T10:11:48;18.60;1.00
17146;DHT22;8688;54.444;18.444;2023-06-05T10:14:17;18.60;1.00
17146;DHT22;8688;54.444;18.444;2023-06-05T10:16:49;18.60;1.00
17146;DHT22;8688;54.444;18.444;2023-06-05T10:19:17;18.60;1.00
17146;DHT22;8688;54.444;18.444;2023-06-05T10:21:48;18.70;1.00
17146;DHT22;8688;54.444;18.444;2023-06-05T10:24:19;18.80;1.00
17146;DHT22;8688;54.444;18.444;2023-06-05T10:27:04;18.90;1.00
17146;DHT22;8688;54.444;18.444;2023-06-05T10:32:55;18.80;1.00
17146;DHT22;8688;54.444;18.444;2023-06-05T10:35:42;18.90;1.00
17146;DHT22;8688;54.444;18.444;2023-06-05T10:38:16;19.00;1.00
17146;DHT22;8688;54.444;18.444;2023-06-05T10:40:48;19.00;1.00
17146;DHT22;8688;54.444;18.444;2023-06-05T10:43:31;19.00;1.00
17146;DHT22;8688;54.444;18.444;2023-06-05T10:46:01;19.00;1.00
17146;DHT22;8688;54.444;18.444;2023-06-05T10:49:06;19.00;1.00
17146;DHT22;8688;54.444;18.444;2023-06-05T10:51:38;19.00;1.00
17146;DHT22;8688;54.444;18.444;2023-06-05T10:54:07;19.10;1.00
17146;DHT22;8688;54.444;18.444;2023-06-05T10:56:59;19.20;1.00
17146;DHT22;8688;54.444;18.444;2023-06-05T10:59:29;19.20;1.00
17146;DHT22;8688;54.444;18.444;2023-06-05T11:02:23;19.30;1.00
17146;DHT22;8688;54.444;18.444;2023-06-05T11:05:17;19.30;1.00
17146;DHT22;8688;54.444;18.444;2023-06-05T11:07:45;19.40;1.00
17146;DHT22;8688;54.444;18.444;2023-06-05T11:10:16;19.40;1.00
17146;DHT22;8688;54.444;18.444;2023-06-05T11:13:03;19.40;1.00
17146;DHT22;8688;54.444;18.444;2023-06-05T11:15:41;19.50;1.00
17146;DHT22;8688;54.444;18.444;2023-06-05T11:18:31;19.60;1.00
17146;DHT22;8688;54.444;18.444;2023-06-05T11:21:00;19.70;1.00
17146;DHT22;8688;54.444;18.444;2023-06-05T11:23:28;19.60;1.00
17146;DHT22;8688;54.444;18.444;2023-06-05T11:25:57;19.60;1.00
17146;DHT22;8688;54.444;18.444;2023-06-05T11:28:39;19.60;1.00
17146;DHT22;8688;54.444;18.444;2023-06-05T11:31:07;19.60;1.00
17146;DHT22;8688;54.444;18.444;2023-06-05T11:33:35;19.60;1.00
17146;DHT22;8688;54.444;18.444;2023-06-05T11:36:04;19.60;1.00
17146;DHT22;8688;54.444;18.444;2023-06-05T11:38:33;19.70;1.00
17146;DHT22;8688;54.444;18.444;2023-06-05T11:41:06;19.90;1.00
17146;DHT22;8688;54.444;18.444;2023-06-05T11:43:42;20.10;1.00
17146;DHT22;8688;54.444;18.444;2023-06-05T11:46:10;20.10;1.00
17146;DHT22;8688;54.444;18.444;2023-06-05T11:48:43;20.00;1.00
17146;DHT22;8688;54.444;18.444;2023-06-05T11:51:12;20.00;1.00
17146;DHT22;8688;54.444;18.444;2023-06-05T11:53:45;20.00;1.00
17146;DHT22;8688;54.444;18.444;2023-06-05T11:56:14;20.00;1.00
17146;DHT22;8688;54.444;18.444;2023-06-05T11:58:44;20.00;1.00
17146;DHT22;8688;54.444;18.444;2023-06-05T12:01:14;20.00;1.00
17146;DHT22;8688;54.444;18.444;2023-06-05T12:03:48;20.00;1.00
17146;DHT22;8688;54.444;18.444;2023-06-05T12:06:17;19.90;1.00
17146;DHT22;8688;54.444;18.444;2023-06-05T12:08:47;19.90;1.00
17146;DHT22;8688;54.444;18.444;2023-06-05T12:11:22;20.00;1.00
17146;DHT22;8688;54.444;18.444;2023-06-05T12:13:53;20.20;1.00
17146;DHT22;8688;54.444;18.444;2023-06-05T12:16:31;20.40;1.00
17146;DHT22;8688;54.444;18.444;2023-06-05T12:18:59;20.40;1.00
17146;DHT22;8688;54.444;18.444;2023-06-05T12:21:27;20.40;1.00
17146;DHT22;8688;54.444;18.444;2023-06-05T12:24:02;20.30;1.00
17146;DHT22;8688;54.444;18.444;2023-06-05T12:26:30;20.20;1.00
17146;DHT22;8688;54.444;18.444;2023-06-05T12:29:06;20.20;1.00
17146;DHT22;8688;54.444;18.444;2023-06-05T12:31:37;20.30;1.00
17146;DHT22;8688;54.444;18.444;2023-06-05T12:34:05;20.20;1.00
17146;DHT22;8688;54.444;18.444;2023-06-05T12:36:38;20.30;1.00
17146;DHT22;8688;54.444;18.444;2023-06-05T12:39:08;20.50;1.00
17146;DHT22;8688;54.444;18.444;2023-06-05T12:41:36;20.80;1.00
17146;DHT22;8688;54.444;18.444;2023-06-05T12:44:06;20.60;1.00
17146;DHT22;8688;54.444;18.444;2023-06-05T12:46:35;20.60;1.00
17146;DHT22;8688;54.444;18.444;2023-06-05T12:49:04;20.60;1.00
17146;DHT22;8688;54.444;18.444;2023-06-05T12:51:32;20.60;1.00
17146;DHT22;8688;54.444;18.444;2023-06-05T12:54:00;20.50;1.00
17146;DHT22;8688;54.444;18.444;2023-06-05T12:56:28;20.40;1.00
17146;DHT22;8688;54.444;18.444;2023-06-05T12:58:59;20.40;1.00
17146;DHT22;8688;54.444;18.444;2023-06-05T13:01:28;20.50;1.00
17146;DHT22;8688;54.444;18.444;2023-06-05T13:03:56;20.40;1.00
17146;DHT22;8688;54.444;18.444;2023-06-05T13:06:23;20.50;1.00
17146;DHT22;8688;54.444;18.444;2023-06-05T13:08:51;20.60;1.00
17146;DHT22;8688;54.444;18.444;2023-06-05T13:11:18;20.60;1.00
17146;DHT22;8688;54.444;18.444;2023-06-05T13:13:47;20.50;1.00
17146;DHT22;8688;54.444;18.444;2023-06-05T13:16:14;20.70;1.00
17146;DHT22;8688;54.444;18.444;2023-06-05T13:18:43;20.90;1.00
17146;DHT22;8688;54.444;18.444;2023-06-05T13:21:11;20.80;1.00
17146;DHT22;8688;54.444;18.444;2023-06-05T13:23:38;20.70;1.00
17146;DHT22;8688;54.444;18.444;2023-06-05T13:26:06;20.60;1.00
17146;DHT22;8688;54.444;18.444;2023-06-05T14:31:28;21.70;1.00
17146;DHT22;8688;54.444;18.444;2023-06-05T14:33:56;21.30;1.00
17146;DHT22;8688;54.444;18.444;2023-06-05T14:36:24;21.00;1.00
17146;DHT22;8688;54.444;18.444;2023-06-05T14:38:51;20.80;1.00
17146;DHT22;8688;54.444;18.444;2023-06-05T14:41:19;20.80;1.00
17146;DHT22;8688;54.444;18.444;2023-06-05T14:43:47;20.80;1.00
17146;DHT22;8688;54.444;18.444;2023-06-05T14:46:14;20.90;1.00
17146;DHT22;8688;54.444;18.444;2023-06-05T14:48:45;21.10;1.00
17146;DHT22;8688;54.444;18.444;2023-06-05T14:51:12;21.10;1.00
17146;DHT22;8688;54.444;18.444;2023-06-05T14:53:40;21.10;1.00
17146;DHT22;8688;54.444;18.444;2023-06-05T14:56:07;21.00;1.00
17146;DHT22;8688;54.444;18.444;2023-06-05T14:58:37;21.00;1.00
17146;DHT22;8688;54.444;18.444;2023-06-05T15:01:06;21.10;1.00
17146;DHT22;8688;54.444;18.444;2023-06-05T15:03:35;21.40;1.00
17146;DHT22;8688;54.444;18.444;2023-06-05T15:06:06;21.00;1.00
17146;DHT22;8688;54.444;18.444;2023-06-05T15:08:35;21.00;1.00
17146;DHT22;8688;54.444;18.444;2023-06-05T15:11:05;21.00;1.00
17146;DHT22;8688;54.444;18.444;2023-06-05T15:13:34;21.20;1.00
17146;DHT22;8688;54.444;18.444;2023-06-05T15:16:02;21.40;1.00
17146;DHT22;8688;54.444;18.444;2023-06-05T15:18:30;21.40;1.00
17146;DHT22;8688;54.444;18.444;2023-06-05T15:20:57;21.40;1.00
17146;DHT22;8688;54.444;18.444;2023-06-05T15:23:27;20.90;1.00
17146;DHT22;8688;54.444;18.444;2023-06-05T15:25:56;20.70;1.00
17146;DHT22;8688;54.444;18.444;2023-06-05T15:28:25;20.50;1.00
17146;DHT22;8688;54.444;18.444;2023-06-05T15:30:56;20.50;1.00
17146;DHT22;8688;54.444;18.444;2023-06-05T15:33:25;20.50;1.00
17146;DHT22;8688;54.444;18.444;2023-06-05T15:35:55;20.40;1.00
17146;DHT22;8688;54.444;18.444;2023-06-05T15:38:28;20.40;1.00
17146;DHT22;8688;54.444;18.444;2023-06-05T15:40:56;20.70;1.00
17146;DHT22;8688;54.444;18.444;2023-06-05T15:43:26;20.60;1.00
17146;DHT22;8688;54.444;18.444;2023-06-05T15:45:54;20.60;1.00
17146;DHT22;8688;54.444;18.444;2023-06-05T15:48:26;20.80;1.00
17146;DHT22;8688;54.444;18.444;2023-06-05T15:50:55;20.90;1.00
17146;DHT22;8688;54.444;18.444;2023-06-05T15:53:31;20.90;1.00
17146;DHT22;8688;54.444;18.444;2023-06-05T15:56:01;21.00;1.00
17146;DHT22;8688;54.444;18.444;2023-06-05T15:58:29;20.90;1.00
17146;DHT22;8688;54.444;18.444;2023-06-05T16:00:56;20.70;1.00
17146;DHT22;8688;54.444;18.444;2023-06-05T16:03:24;20.70;1.00
17146;DHT22;8688;54.444;18.444;2023-06-05T16:05:51;20.70;1.00
17146;DHT22;8688;54.444;18.444;2023-06-05T16:08:19;20.40;1.00
17146;DHT22;8688;54.444;18.444;2023-06-05T16:10:49;20.40;1.00
17146;DHT22;8688;54.444;18.444;2023-06-05T16:13:16;20.50;1.00
17146;DHT22;8688;54.444;18.444;2023-06-05T16:15:44;20.40;1.00
17146;DHT22;8688;54.444;18.444;2023-06-05T16:18:11;20.70;1.00
17146;DHT22;8688;54.444;18.444;2023-06-05T16:20:39;20.90;1.00
17146;DHT22;8688;54.444;18.444;2023-06-05T16:23:06;21.00;1.00
17146;DHT22;8688;54.444;18.444;2023-06-05T16:25:33;21.00;1.00
17146;DHT22;8688;54.444;18.444;2023-06-05T16:28:02;20.80;1.00
17146;DHT22;8688;54.444;18.444;2023-06-05T16:30:30;20.60;1.00
17146;DHT22;8688;54.444;18.444;2023-06-05T16:32:57;20.20;1.00
17146;DHT22;8688;54.444;18.444;2023-06-05T16:35:25;20.30;1.00
17146;DHT22;8688;54.444;18.444;2023-06-05T16:37:52;20.40;1.00
17146;DHT22;8688;54.444;18.444;2023-06-05T16:40:20;20.20;1.00
17146;DHT22;8688;54.444;18.444;2023-06-05T16:42:47;20.00;1.00
17146;DHT22;8688;54.444;18.444;2023-06-05T16:45:16;20.00;1.00
17146;DHT22;8688;54.444;18.444;2023-06-05T16:47:45;20.00;1.00
17146;DHT22;8688;54.444;18.444;2023-06-05T16:50:13;20.00;1.00
17146;DHT22;8688;54.444;18.444;2023-06-05T16:52:40;20.30;1.00
17146;DHT22;8688;54.444;18.444;2023-06-05T16:55:08;20.70;1.00
17146;DHT22;8688;54.444;18.444;2023-06-05T16:57:36;21.10;1.00
17146;DHT22;8688;54.444;18.444;2023-06-05T17:00:04;21.90;1.00
17146;DHT22;8688;54.444;18.444;2023-06-05T17:02:35;22.60;1.00
17146;DHT22;8688;54.444;18.444;2023-06-05T17:05:03;22.90;1.00
17146;DHT22;8688;54.444;18.444;2023-06-05T17:07:31;23.10;1.00